Time;durP1;ratioP1;P1;durP2;ratioP2;P2;SDS_P1;SDS_P2;PMS_P1;PMS_P2;Temp;Humidity;BMP_temperature;BMP_pressure;BME280_temperature;BME280_humidity;BME280_pressure;Samples;Min_cycle;Max_cycle;Signal;HPM_P1;HPM_P2
2022/07/16 00:02:59;;;;;;;3.70;2.75;;;;;;;27.33;48.30;100836.03;5097175;28;20051;-83
2022/07/16 00:05:27;;;;;;;3.17;2.70;;;;;;;27.34;48.23;100840.41;5097426;28;20048;-83
2022/07/16 00:07:54;;;;;;;4.40;2.55;;;;;;;27.34;48.46;100837.69;5096969;28;20399;-83
2022/07/16 00:10:22;;;;;;;3.30;2.53;;;;;;;27.35;47.88;100840.25;5098522;28;20040;-83
2022/07/16 00:12:50;;;;;;;3.10;2.47;;;;;;;27.35;48.22;100840.25;5080664;28;20048;-83
2022/07/16 00:15:17;;;;;;;5.18;2.45;;;;;;;27.36;48.03;100844.66;5099315;28;20458;-83
2022/07/16 00:17:44;;;;;;;4.32;2.80;;;;;;;27.36;48.27;100839.22;5099708;28;20052;-83
2022/07/16 00:20:12;;;;;;;3.05;2.63;;;;;;;27.37;48.35;100845.50;5099545;28;20044;-83
2022/07/16 00:22:39;;;;;;;4.55;2.78;;;;;;;27.38;48.28;100844.47;5098581;28;20040;-84
2022/07/16 00:25:07;;;;;;;3.20;2.60;;;;;;;27.39;48.43;100851.59;5098569;28;20040;-85
2022/07/16 00:27:35;;;;;;;4.07;2.85;;;;;;;27.40;48.34;100852.44;5089152;28;20040;-85
2022/07/16 00:30:02;;;;;;;5.28;2.55;;;;;;;27.40;48.25;100852.44;5097794;28;20047;-85
2022/07/16 00:32:32;;;;;;;4.07;2.15;;;;;;;27.41;48.25;100854.13;5097039;28;20040;-85
2022/07/16 00:34:59;;;;;;;2.97;2.40;;;;;;;27.41;48.60;100856.84;5095551;28;20048;-85
2022/07/16 00:37:27;;;;;;;5.28;2.83;;;;;;;27.42;48.54;100856.66;5098090;28;20047;-85
2022/07/16 00:39:54;;;;;;;4.65;2.90;;;;;;;27.43;48.47;100865.66;5098281;28;20415;-84
2022/07/16 00:42:21;;;;;;;4.00;2.53;;;;;;;27.43;48.48;100869.25;5098199;28;20040;-85
2022/07/16 00:44:49;;;;;;;4.40;2.78;;;;;;;27.43;48.25;100863.81;5097509;28;20044;-85
2022/07/16 00:47:16;;;;;;;2.63;2.20;;;;;;;27.43;48.33;100860.22;5097828;28;20047;-85
2022/07/16 00:49:44;;;;;;;3.40;2.67;;;;;;;27.43;48.34;100863.81;5095991;28;20047;-85
2022/07/16 00:52:11;;;;;;;3.20;2.50;;;;;;;27.45;48.57;100871.75;5095455;28;20541;-86
2022/07/16 00:54:38;;;;;;;3.60;2.40;;;;;;;27.45;48.45;100875.31;5093675;28;20047;-85
2022/07/16 00:57:06;;;;;;;3.80;2.83;;;;;;;27.45;48.67;100878.03;5097758;28;20044;-85
2022/07/16 00:59:33;;;;;;;3.42;2.53;;;;;;;27.46;48.13;100873.44;5097313;28;20040;-85
2022/07/16 01:02:01;;;;;;;3.38;2.40;;;;;;;27.47;48.88;100875.16;5096296;28;20492;-85
2022/07/16 01:04:28;;;;;;;3.08;2.38;;;;;;;27.48;48.51;100876.84;5095872;28;20052;-85
2022/07/16 01:06:56;;;;;;;6.95;2.80;;;;;;;27.47;48.33;100876.00;5096271;28;20048;-84
2022/07/16 01:09:25;;;;;;;2.90;2.30;;;;;;;27.47;48.94;100878.72;5095346;28;20063;-85
2022/07/16 01:11:53;;;;;;;3.88;2.72;;;;;;;27.48;49.03;100880.41;5094318;28;20057;-85
2022/07/16 01:14:24;;;;;;;3.60;2.72;;;;;;;27.49;49.05;100894.84;5094188;28;20048;-85
2022/07/16 01:16:52;;;;;;;3.63;2.53;;;;;;;27.49;48.83;100894.84;5097219;28;20044;-85
2022/07/16 01:19:19;;;;;;;3.08;2.45;;;;;;;27.49;49.09;100889.41;5095869;28;20050;-81
2022/07/16 01:21:46;;;;;;;2.67;2.20;;;;;;;27.50;49.18;100894.63;5097310;28;20043;-81
2022/07/16 01:24:14;;;;;;;3.08;2.50;;;;;;;27.50;49.13;100883.75;5094699;28;20051;-81
2022/07/16 01:26:42;;;;;;;3.15;2.60;;;;;;;27.52;49.24;100895.31;5091938;28;20048;-81
2022/07/16 01:29:09;;;;;;;3.00;2.67;;;;;;;27.52;49.21;100889.88;5074449;28;20055;-81
2022/07/16 01:31:36;;;;;;;4.07;2.55;;;;;;;27.53;49.14;100894.28;5076605;28;20040;-81
2022/07/16 01:36:59;;;;;;;3.42;2.45;;;;;;;27.54;49.47;100882.38;5076727;28;20400;-81
2022/07/16 01:39:30;;;;;;;4.85;2.63;;;;;;;27.54;49.87;100890.53;5075284;28;20056;-81
2022/07/16 01:42:01;;;;;;;2.90;2.60;;;;;;;27.54;49.56;100882.38;5073506;28;20403;-81
2022/07/16 01:44:30;;;;;;;3.35;2.60;;;;;;;27.56;49.95;100879.47;5074171;28;20052;-81
2022/07/16 01:46:59;;;;;;;3.20;2.90;;;;;;;27.56;50.02;100885.75;5074528;28;20048;-81
2022/07/16 01:49:32;;;;;;;3.83;2.95;;;;;;;27.57;49.64;100881.16;5072961;28;20044;-81
2022/07/16 01:52:05;;;;;;;4.00;2.33;;;;;;;27.57;49.74;100890.16;5075674;28;20036;-81
2022/07/16 01:54:32;;;;;;;3.95;2.63;;;;;;;27.59;50.06;100890.84;5076034;28;20051;-82
2022/07/16 01:57:00;;;;;;;5.30;2.50;;;;;;;27.58;49.81;100889.13;5057581;28;20522;-83
2022/07/16 01:59:27;;;;;;;2.75;2.53;;;;;;;27.59;50.14;100888.13;5074917;28;20051;-83
2022/07/16 02:01:55;;;;;;;3.60;2.63;;;;;;;27.60;50.14;100880.81;5074751;28;20045;-83
2022/07/16 02:04:22;;;;;;;3.03;2.72;;;;;;;27.60;50.07;100886.25;5076051;28;20044;-83
2022/07/16 02:06:49;;;;;;;5.43;3.00;;;;;;;27.59;50.45;100890.84;5076016;28;20048;-83
2022/07/16 02:09:17;;;;;;;2.95;2.65;;;;;;;27.60;50.39;100897.13;5075335;28;20048;-83
2022/07/16 02:11:44;;;;;;;5.57;3.40;;;;;;;27.61;50.64;100896.91;5073382;28;20052;-84
2022/07/16 02:14:12;;;;;;;3.92;3.00;;;;;;;27.61;50.61;100893.34;5075151;28;20059;-82
2022/07/16 02:16:39;;;;;;;4.45;3.00;;;;;;;27.61;51.25;100894.19;5074574;28;20055;-82
2022/07/16 02:19:06;;;;;;;5.72;2.80;;;;;;;27.62;51.64;100908.63;5074785;28;20045;-82
2022/07/16 02:21:34;;;;;;;3.22;2.90;;;;;;;27.63;52.24;100904.03;5075000;28;20036;-81
2022/07/16 02:24:02;;;;;;;3.78;2.90;;;;;;;27.61;52.33;100907.81;5073388;28;20052;-81
2022/07/16 02:26:29;;;;;;;5.32;3.30;;;;;;;27.61;52.18;100899.63;5057426;28;20052;-81
2022/07/16 02:28:57;;;;;;;5.32;3.30;;;;;;;27.61;51.97;100912.41;5080903;28;20479;-81
2022/07/16 02:31:39;;;;;;;6.05;3.35;;;;;;;27.61;51.55;100921.41;5094241;28;20048;-84
2022/07/16 02:34:07;;;;;;;4.25;2.83;;;;;;;27.61;52.01;100915.13;5096486;28;20407;-80
2022/07/16 02:36:34;;;;;;;4.38;2.97;;;;;;;27.61;52.21;100915.97;5095062;28;20051;-80
2022/07/16 02:39:01;;;;;;;3.53;2.60;;;;;;;27.61;52.01;100918.69;5095170;28;20059;-80
2022/07/16 02:41:30;;;;;;;3.75;3.10;;;;;;;27.61;53.11;100915.97;5096083;28;20475;-81
2022/07/16 02:43:57;;;;;;;3.40;3.10;;;;;;;27.63;52.56;100914.91;5095253;28;20052;-81
2022/07/16 02:46:24;;;;;;;3.60;3.10;;;;;;;27.62;52.32;100922.25;5094242;28;20044;-81
2022/07/16 02:48:52;;;;;;;3.40;3.10;;;;;;;27.62;52.18;100922.25;5093632;28;20503;-81
2022/07/16 02:51:19;;;;;;;3.20;2.53;;;;;;;27.64;52.53;100924.78;5093545;28;20487;-81
2022/07/16 02:53:47;;;;;;;3.72;2.80;;;;;;;27.63;52.47;100917.63;5095836;28;20047;-81
2022/07/16 02:56:15;;;;;;;4.07;3.45;;;;;;;27.64;52.87;100922.06;5096063;28;20044;-81
2022/07/16 02:58:42;;;;;;;3.53;3.00;;;;;;;27.63;52.68;100918.50;5095292;28;20513;-81
2022/07/16 03:01:10;;;;;;;5.57;3.42;;;;;;;27.64;52.73;100919.34;5094113;28;20055;-81
2022/07/16 03:03:37;;;;;;;4.03;3.38;;;;;;;27.64;52.96;100919.34;5095000;28;20044;-80
2022/07/16 03:06:04;;;;;;;3.88;3.22;;;;;;;27.64;52.66;100920.19;5075079;28;20044;-81
2022/07/16 03:08:32;;;;;;;4.35;3.17;;;;;;;27.64;52.38;100924.78;5093232;28;20053;-81
2022/07/16 03:10:59;;;;;;;3.95;3.13;;;;;;;27.64;52.86;100938.38;5094515;28;20051;-81
2022/07/16 03:13:27;;;;;;;6.18;3.38;;;;;;;27.65;52.25;100929.19;5094607;28;20052;-81
2022/07/16 03:15:54;;;;;;;4.10;3.25;;;;;;;27.64;53.13;100931.06;5092929;28;20062;-81
2022/07/16 03:18:24;;;;;;;5.30;3.30;;;;;;;27.66;53.26;100928.16;5094243;28;20048;-80
2022/07/16 03:20:51;;;;;;;3.40;3.10;;;;;;;27.65;53.02;100929.19;5092531;28;20510;-80
2022/07/16 03:23:19;;;;;;;5.55;3.72;;;;;;;27.65;52.99;100931.91;5097505;28;20052;-80
2022/07/16 03:25:46;;;;;;;3.63;2.88;;;;;;;27.66;53.34;100933.59;5098628;28;20055;-81
2022/07/16 03:28:13;;;;;;;3.88;3.15;;;;;;;27.66;53.68;100928.16;5097988;28;20054;-81
2022/07/16 03:30:41;;;;;;;4.85;3.22;;;;;;;27.65;53.40;100926.47;5077424;28;20049;-81
2022/07/16 03:33:08;;;;;;;3.58;3.15;;;;;;;27.66;52.62;100934.44;5078304;28;20476;-80
2022/07/16 03:35:36;;;;;;;3.47;3.10;;;;;;;27.67;52.73;100929.84;5078615;28;20063;-81
2022/07/16 03:40:49;;;;;;;3.83;2.85;;;;;;;27.68;53.25;100937.00;5076865;28;20079;-81
2022/07/16 03:43:16;;;;;;;4.15;3.30;;;;;;;27.69;53.58;100938.69;5077201;28;20053;-81
2022/07/16 03:45:43;;;;;;;3.40;3.10;;;;;;;27.69;53.11;100939.50;5076404;28;20055;-81
2022/07/16 03:48:11;;;;;;;3.85;3.42;;;;;;;27.69;53.47;100935.97;5076844;28;20044;-81
2022/07/16 03:50:38;;;;;;;3.47;3.17;;;;;;;27.70;54.13;100943.09;5075288;28;20055;-83
2022/07/16 03:53:05;;;;;;;3.92;3.22;;;;;;;27.70;54.05;100943.09;5076186;28;20049;-82
2022/07/16 03:55:33;;;;;;;3.45;2.80;;;;;;;27.68;54.09;100951.44;5078045;28;20056;-82
2022/07/16 03:58:00;;;;;;;5.60;3.63;;;;;;;27.69;54.07;100952.28;5076709;28;20053;-82
2022/07/16 04:00:27;;;;;;;3.38;2.95;;;;;;;27.69;54.41;100955.84;5078318;28;20506;-82
2022/07/16 04:03:02;;;;;;;4.03;3.63;;;;;;;27.70;54.58;100962.13;5076520;28;20044;-82
2022/07/16 04:05:30;;;;;;;4.65;3.38;;;;;;;27.69;54.83;100955.00;5077618;28;20048;-81
2022/07/16 04:07:57;;;;;;;5.25;3.17;;;;;;;27.69;54.92;100964.00;5076922;28;20044;-82
2022/07/16 04:10:25;;;;;;;4.32;3.70;;;;;;;27.69;54.87;100957.72;5075495;28;20053;-81
2022/07/16 04:12:52;;;;;;;5.38;3.22;;;;;;;27.70;55.06;100962.13;5074479;28;20048;-81
2022/07/16 04:15:19;;;;;;;4.03;3.58;;;;;;;27.70;55.55;100967.56;5075869;28;20048;-81
2022/07/16 04:17:47;;;;;;;6.32;3.40;;;;;;;27.69;55.31;100966.72;5076502;28;20056;-82
2022/07/16 04:20:14;;;;;;;5.07;3.10;;;;;;;27.69;55.59;100965.88;5076728;28;20053;-82
2022/07/16 04:22:42;;;;;;;4.90;3.03;;;;;;;27.69;55.52;100972.16;5078096;28;20041;-82
2022/07/16 04:25:09;;;;;;;4.75;3.00;;;;;;;27.70;55.37;100973.84;5075751;28;20071;-82
2022/07/16 04:27:38;;;;;;;4.45;3.10;;;;;;;27.69;56.18;100977.59;5075656;28;20400;-82
2022/07/16 04:30:07;;;;;;;4.43;3.17;;;;;;;27.70;56.69;100976.56;5075930;28;20574;-82
2022/07/16 04:32:37;;;;;;;5.40;3.72;;;;;;;27.69;56.69;100976.75;5079722;28;20055;-82
2022/07/16 04:35:05;;;;;;;4.13;3.15;;;;;;;27.67;56.11;100978.81;5059831;28;20063;-82
2022/07/16 04:37:33;;;;;;;4.82;3.67;;;;;;;27.67;56.53;100979.69;5076784;28;20049;-82
2022/07/16 04:40:02;;;;;;;4.57;3.28;;;;;;;27.68;56.39;100986.78;5076347;28;20389;-82
2022/07/16 04:42:30;;;;;;;5.90;3.47;;;;;;;27.68;56.27;100980.50;5077342;28;20056;-82
2022/07/16 04:44:57;;;;;;;4.72;3.42;;;;;;;27.67;56.21;100978.81;5076351;28;20045;-82
2022/07/16 04:47:25;;;;;;;5.47;3.70;;;;;;;27.67;56.37;100985.13;5077337;28;20052;-81
2022/07/16 04:49:52;;;;;;;6.75;3.60;;;;;;;27.68;56.58;100977.78;5077403;28;20507;-82
2022/07/16 04:52:19;;;;;;;3.38;3.08;;;;;;;27.67;56.45;100985.13;5093111;28;20040;-82
2022/07/16 04:54:47;;;;;;;4.15;3.60;;;;;;;27.67;56.72;100987.84;5076158;28;20044;-81
2022/07/16 04:57:14;;;;;;;5.80;3.53;;;;;;;27.67;56.75;100982.38;5077383;28;20051;-81
2022/07/16 04:59:42;;;;;;;4.57;3.78;;;;;;;27.68;56.79;100986.78;5077533;28;20056;-82
2022/07/16 05:04:55;;;;;;;5.75;3.65;;;;;;;27.69;56.26;100982.19;5075191;28;20060;-82
2022/07/16 05:07:23;;;;;;;3.53;3.05;;;;;;;27.68;56.62;100980.50;5077299;28;20468;-82
2022/07/16 05:09:50;;;;;;;3.80;3.38;;;;;;;27.68;56.33;100991.41;5076272;28;20052;-82
2022/07/16 05:12:18;;;;;;;4.22;3.83;;;;;;;27.70;56.82;100995.59;5073637;28;20408;-83
2022/07/16 05:14:45;;;;;;;3.75;3.45;;;;;;;27.69;56.64;100996.63;5074326;28;20051;-84
2022/07/16 05:17:13;;;;;;;5.90;3.70;;;;;;;27.70;56.75;100983.88;5076316;28;20484;-83
2022/07/16 05:19:40;;;;;;;3.95;3.58;;;;;;;27.69;56.79;100996.63;5074748;28;20056;-83
2022/07/16 05:22:08;;;;;;;4.85;4.05;;;;;;;27.70;56.22;101003.75;5076691;28;20051;-84
2022/07/16 05:24:36;;;;;;;5.47;4.03;;;;;;;27.71;56.32;101001.88;5059002;28;20055;-83
2022/07/16 05:27:04;;;;;;;4.45;4.05;;;;;;;27.70;56.97;101000.19;5077057;28;20040;-83
2022/07/16 05:29:31;;;;;;;4.68;4.10;;;;;;;27.71;57.06;101001.88;5075582;28;20064;-82
2022/07/16 05:31:58;;;;;;;5.05;4.18;;;;;;;27.71;56.99;101008.19;5076183;28;20487;-83
2022/07/16 05:34:25;;;;;;;4.88;3.88;;;;;;;27.71;56.78;101013.63;5074711;28;20040;-83
2022/07/16 05:36:53;;;;;;;6.10;3.20;;;;;;;27.72;56.41;101009.03;5089521;28;20060;-83
2022/07/16 05:39:26;;;;;;;4.43;3.83;;;;;;;27.71;56.87;101007.31;5074010;28;20052;-83
2022/07/16 05:41:53;;;;;;;5.03;4.40;;;;;;;27.71;57.46;101008.19;5076171;28;20051;-83
2022/07/16 05:44:20;;;;;;;6.25;4.75;;;;;;;27.72;57.46;101012.59;5076111;28;20048;-83
2022/07/16 05:46:47;;;;;;;5.03;4.53;;;;;;;27.72;57.58;101017.19;5075493;28;20045;-83
2022/07/16 05:49:15;;;;;;;5.53;4.88;;;;;;;27.72;57.93;101017.19;5077296;28;20048;-83
2022/07/16 05:51:42;;;;;;;5.30;4.80;;;;;;;27.71;57.15;101024.53;5076173;28;20048;-83
2022/07/16 05:54:09;;;;;;;5.28;4.80;;;;;;;27.72;57.03;101019.91;5075646;28;20056;-83
2022/07/16 05:56:37;;;;;;;5.38;4.80;;;;;;;27.71;57.11;101019.06;5081546;28;20488;-83
2022/07/16 05:59:04;;;;;;;4.57;4.18;;;;;;;27.72;57.41;101018.03;5094449;28;20055;-83
2022/07/16 06:01:32;;;;;;;5.70;5.20;;;;;;;27.73;57.15;101024.31;5095098;28;20052;-82
2022/07/16 06:03:59;;;;;;;5.50;5.00;;;;;;;27.73;57.32;101030.63;5096159;28;20040;-82
2022/07/16 06:06:27;;;;;;;5.82;5.10;;;;;;;27.73;57.38;101027.91;5095984;28;20506;-82
2022/07/16 06:08:54;;;;;;;4.97;4.10;;;;;;;27.73;56.41;101022.47;5077120;28;20048;-82
2022/07/16 06:11:21;;;;;;;5.35;4.85;;;;;;;27.74;56.66;101026.03;5095956;28;20070;-82
2022/07/16 06:13:49;;;;;;;4.50;4.03;;;;;;;27.76;56.43;101029.44;5095058;28;20040;-82
2022/07/16 06:16:16;;;;;;;5.68;4.50;;;;;;;27.75;57.44;101036.75;5094076;28;20114;-83
2022/07/16 06:18:44;;;;;;;6.70;5.88;;;;;;;27.77;57.25;101039.28;5094059;28;20056;-82
2022/07/16 06:21:11;;;;;;;6.25;5.65;;;;;;;27.77;57.71;101033.84;5092285;28;20062;-83
2022/07/16 06:23:38;;;;;;;5.00;4.43;;;;;;;27.77;57.17;101029.25;5093900;28;20044;-83
2022/07/16 06:26:06;;;;;;;4.65;4.25;;;;;;;27.77;56.63;101029.25;5095325;28;20043;-83
2022/07/16 06:28:33;;;;;;;6.38;5.78;;;;;;;27.79;57.34;101039.94;5094110;28;20040;-81
2022/07/16 06:31:00;;;;;;;5.32;4.82;;;;;;;27.78;57.09;101041.81;5094728;28;20044;-83
2022/07/16 06:33:28;;;;;;;4.88;4.38;;;;;;;27.80;56.29;101039.78;5080937;28;20044;-83
2022/07/16 06:35:55;;;;;;;6.00;5.50;;;;;;;27.80;57.11;101038.94;5074884;28;20037;-83
2022/07/16 06:38:23;;;;;;;6.28;5.60;;;;;;;27.80;57.28;101045.22;5072051;28;20403;-82
2022/07/16 06:40:50;;;;;;;6.63;6.07;;;;;;;27.81;57.43;101046.06;5073641;28;20053;-81
2022/07/16 06:43:17;;;;;;;6.75;5.70;;;;;;;27.80;56.91;101047.94;5093454;28;20106;-81
2022/07/16 06:45:45;;;;;;;6.20;5.60;;;;;;;27.81;56.94;101041.44;5092029;28;20051;-83
2022/07/16 06:48:12;;;;;;;5.28;4.68;;;;;;;27.81;56.76;101051.50;5093711;28;20384;-81
2022/07/16 06:50:39;;;;;;;6.18;5.65;;;;;;;27.82;56.63;101050.47;5094612;28;20052;-82
2022/07/16 06:53:07;;;;;;;6.57;4.35;;;;;;;27.83;56.30;101049.41;5094040;28;20074;-80
2022/07/16 06:55:34;;;;;;;7.32;5.07;;;;;;;27.84;56.42;101053.84;5092275;28;20052;-81
2022/07/16 06:58:02;;;;;;;6.75;5.57;;;;;;;27.84;56.37;101046.53;5092797;28;20404;-81
2022/07/16 07:00:29;;;;;;;5.15;4.60;;;;;;;27.85;56.58;101045.50;5093334;28;20043;-81
2022/07/16 07:02:57;;;;;;;8.90;6.07;;;;;;;27.86;56.54;101054.50;5093241;28;20040;-80
2022/07/16 07:05:24;;;;;;;5.93;5.35;;;;;;;27.86;56.38;101049.06;5094116;28;20051;-81
2022/07/16 07:07:51;;;;;;;5.75;5.18;;;;;;;27.87;56.15;101050.75;5094033;28;20055;-82
2022/07/16 07:10:19;;;;;;;8.70;5.43;;;;;;;27.89;56.53;101059.59;5092237;28;20411;-81
2022/07/16 07:12:46;;;;;;;5.97;5.30;;;;;;;27.88;56.20;101047.03;5093522;28;20044;-80
2022/07/16 07:15:13;;;;;;;6.30;5.70;;;;;;;27.90;56.27;101055.81;5092936;28;20048;-81
2022/07/16 07:17:41;;;;;;;6.32;5.72;;;;;;;27.91;56.07;101057.50;5093666;28;20048;-81
2022/07/16 07:20:11;;;;;;;6.32;5.63;;;;;;;27.92;55.96;101051.06;5092726;28;20036;-81
2022/07/16 07:22:38;;;;;;;5.78;4.93;;;;;;;27.93;55.77;101058.19;5095208;28;20051;-82
2022/07/16 07:25:06;;;;;;;5.93;5.43;;;;;;;27.92;55.71;101056.50;5094568;28;20480;-81
2022/07/16 07:27:33;;;;;;;5.93;5.38;;;;;;;27.93;55.75;101058.19;5095467;28;20047;-82
2022/07/16 07:30:01;;;;;;;6.55;5.85;;;;;;;27.93;55.77;101055.47;5093183;28;20051;-82
2022/07/16 07:32:28;;;;;;;6.10;5.50;;;;;;;27.96;55.95;101063.28;5091856;28;20040;-82
2022/07/16 07:34:56;;;;;;;6.10;5.45;;;;;;;27.96;55.63;101048.81;5084846;28;20040;-82
2022/07/16 07:37:23;;;;;;;5.50;5.00;;;;;;;27.95;55.94;101050.69;5074265;28;20052;-81
2022/07/16 07:39:53;;;;;;;5.78;5.10;;;;;;;27.97;55.86;101048.63;5072564;28;20538;-81
2022/07/16 07:42:21;;;;;;;5.53;5.03;;;;;;;27.97;56.31;101048.63;5074108;28;20055;-82
2022/07/16 07:44:48;;;;;;;7.47;6.03;;;;;;;27.98;57.44;101052.19;5073329;28;20044;-82
2022/07/16 07:47:15;;;;;;;8.45;7.47;;;;;;;27.97;57.86;101055.94;5071511;28;20487;-81
2022/07/16 07:49:43;;;;;;;7.68;6.90;;;;;;;27.94;58.07;101054.44;5072707;28;20098;-81
2022/07/16 07:52:10;;;;;;;8.30;7.22;;;;;;;27.94;57.78;101046.28;5071150;28;20044;-82
2022/07/16 07:54:38;;;;;;;9.40;7.60;;;;;;;27.93;58.26;101049.19;5071214;28;20047;-81
2022/07/16 07:57:05;;;;;;;8.40;6.95;;;;;;;27.93;58.21;101049.19;5071416;28;20063;-82
2022/07/16 07:59:33;;;;;;;8.50;6.95;;;;;;;27.94;57.37;101053.59;5073443;28;20159;-82
2022/07/16 08:02:00;;;;;;;9.18;6.07;;;;;;;27.95;57.22;101053.41;5073923;28;20045;-81
2022/07/16 08:04:27;;;;;;;8.63;6.53;;;;;;;27.97;56.65;101053.22;5072632;28;20036;-80
2022/07/16 08:06:55;;;;;;;9.77;6.70;;;;;;;27.98;57.17;101047.59;5072337;28;20044;-81
2022/07/16 08:09:22;;;;;;;6.05;5.55;;;;;;;28.01;57.07;101052.69;5074964;28;20047;-84
2022/07/16 08:11:50;;;;;;;8.43;6.43;;;;;;;28.03;57.56;101049.75;5076123;28;20051;-82
2022/07/16 08:14:17;;;;;;;10.30;6.75;;;;;;;28.03;57.42;101047.88;5076522;28;20460;-82
2022/07/16 08:16:56;;;;;;;8.20;7.10;;;;;;;28.04;57.42;101052.31;5075950;28;20056;-82
2022/07/16 08:19:24;;;;;;;9.23;6.53;;;;;;;28.06;57.94;101047.50;5076173;28;20052;-81
2022/07/16 08:21:51;;;;;;;9.52;6.10;;;;;;;28.07;57.29;101048.34;5077171;28;20048;-81
2022/07/16 08:27:05;;;;;;;9.07;7.28;;;;;;;28.11;57.26;101055.13;5075967;28;20044;-80
2022/07/16 08:29:32;;;;;;;8.68;6.40;;;;;;;28.13;57.48;101049.50;5076144;28;20055;-82
2022/07/16 08:31:59;;;;;;;7.60;6.35;;;;;;;28.18;57.88;101057.97;5077062;28;20045;-81
2022/07/16 08:34:27;;;;;;;9.13;7.28;;;;;;;28.19;57.38;101054.19;5083946;28;20043;-81
2022/07/16 08:36:54;;;;;;;7.53;6.70;;;;;;;28.20;58.07;101061.38;5088972;28;20419;-81
2022/07/16 08:39:22;;;;;;;12.23;7.00;;;;;;;28.20;57.69;101054.03;5097077;28;20056;-80
2022/07/16 08:41:50;;;;;;;8.38;6.78;;;;;;;28.19;58.05;101046.03;5097372;28;20059;-81
2022/07/16 08:44:17;;;;;;;7.10;6.35;;;;;;;28.22;57.92;101051.97;5097420;28;20051;-81
2022/07/16 08:46:45;;;;;;;7.82;7.03;;;;;;;28.24;57.89;101052.63;5097235;28;20051;-82
2022/07/16 08:49:13;;;;;;;8.40;7.18;;;;;;;28.25;57.24;101051.59;5095866;28;20410;-80
2022/07/16 08:51:40;;;;;;;8.20;6.63;;;;;;;28.26;57.76;101050.56;5095864;28;20051;-81
2022/07/16 08:54:18;;;;;;;10.43;6.88;;;;;;;28.25;57.88;101048.88;5095391;28;20055;-81
2022/07/16 08:56:47;;;;;;;9.32;6.65;;;;;;;28.25;58.03;101048.88;5096019;28;20407;-83
2022/07/16 08:59:15;;;;;;;7.00;6.30;;;;;;;28.24;58.07;101049.91;5096831;28;20040;-84
2022/07/16 09:01:42;;;;;;;8.80;7.10;;;;;;;28.25;57.96;101054.31;5097252;28;20044;-82
2022/07/16 09:04:10;;;;;;;7.70;6.43;;;;;;;28.26;58.09;101053.28;5096421;28;20040;-81
2022/07/16 09:06:37;;;;;;;9.05;6.93;;;;;;;28.26;57.84;101053.28;5096245;28;20407;-81
2022/07/16 09:09:05;;;;;;;8.85;6.57;;;;;;;28.26;57.73;101053.28;5096491;28;20377;-80
2022/07/16 09:11:35;;;;;;;7.43;5.95;;;;;;;28.27;58.00;101051.41;5096285;28;20047;-80
2022/07/16 09:14:06;;;;;;;6.72;6.13;;;;;;;28.28;57.43;101053.13;5095474;28;20040;-80
2022/07/16 09:16:42;;;;;;;9.77;6.67;;;;;;;28.27;58.08;101040.50;5094230;28;20419;-80
2022/07/16 09:19:20;;;;;;;8.20;6.32;;;;;;;28.27;58.36;101044.06;5096706;28;20048;-80
2022/07/16 09:22:00;;;;;;;7.57;6.43;;;;;;;28.27;57.81;101043.22;5078123;28;20047;-80
2022/07/16 09:24:31;;;;;;;8.43;6.57;;;;;;;28.28;57.62;101036.78;5095089;28;20040;-81
2022/07/16 09:27:08;;;;;;;8.07;6.80;;;;;;;28.28;57.21;101039.50;5093750;28;20051;-80
2022/07/16 09:29:45;;;;;;;7.18;6.45;;;;;;;28.30;57.38;101045.59;5096473;28;20051;-82
2022/07/16 09:32:27;;;;;;;9.82;6.45;;;;;;;28.29;57.44;101044.75;5095049;28;20051;-80
2022/07/16 09:35:10;;;;;;;10.60;7.05;;;;;;;28.29;57.21;101043.91;5091256;28;20048;-80
2022/07/16 09:38:00;;;;;;;10.15;6.88;;;;;;;28.28;56.94;101044.94;5090812;28;20479;-80
2022/07/16 09:40:33;;;;;;;7.95;6.13;;;;;;;28.28;57.45;101043.06;5095446;28;20044;-80
2022/07/16 09:43:03;;;;;;;10.32;7.20;;;;;;;28.32;57.45;101040.81;5077447;28;20055;-81
2022/07/16 09:45:31;;;;;;;8.25;6.75;;;;;;;28.32;56.99;101038.09;5095824;28;20051;-78
2022/07/16 09:47:58;;;;;;;9.32;7.07;;;;;;;28.32;57.00;101038.09;5096080;28;20062;-78
2022/07/16 09:50:36;;;;;;;10.63;6.90;;;;;;;28.32;57.04;101038.09;5094600;28;20052;-79
2022/07/16 09:53:18;;;;;;;8.10;6.38;;;;;;;28.32;56.94;101033.50;5076142;28;20052;-78
2022/07/16 09:56:00;;;;;;;7.78;6.90;;;;;;;28.33;57.31;101037.06;5095231;28;20044;-79
2022/07/16 09:58:27;;;;;;;7.90;6.70;;;;;;;28.33;57.11;101037.06;5093967;28;20048;-79
2022/07/16 10:00:55;;;;;;;10.27;6.97;;;;;;;28.36;56.56;101028.56;5095298;28;20478;-78
2022/07/16 10:03:23;;;;;;;8.48;6.65;;;;;;;28.39;56.60;101028.16;5094958;28;20048;-78
2022/07/16 10:05:51;;;;;;;8.70;7.53;;;;;;;28.41;56.13;101031.56;5095331;28;20039;-77
2022/07/16 10:08:24;;;;;;;7.38;6.18;;;;;;;28.42;56.06;101037.84;5076557;28;20067;-77
2022/07/16 10:10:52;;;;;;;11.43;6.60;;;;;;;28.42;56.20;101025.06;5095084;28;20044;-77
2022/07/16 10:13:27;;;;;;;8.35;7.32;;;;;;;28.42;56.47;101026.94;5093199;28;20059;-78
2022/07/16 10:15:55;;;;;;;8.52;7.07;;;;;;;28.42;56.08;101026.94;5094020;28;20043;-78
2022/07/16 10:18:43;;;;;;;11.05;7.57;;;;;;;28.41;55.68;101017.94;5094113;28;20391;-78
2022/07/16 10:21:19;;;;;;;9.85;7.10;;;;;;;28.41;56.14;101019.81;5094639;28;20047;-78
2022/07/16 10:24:03;;;;;;;7.13;6.47;;;;;;;28.42;55.80;101021.50;5094027;28;20044;-78
2022/07/16 10:26:32;;;;;;;8.13;5.93;;;;;;;28.42;55.74;101022.34;5094595;28;20051;-79
2022/07/16 10:29:01;;;;;;;9.50;6.72;;;;;;;28.42;56.30;101016.06;5093754;28;20048;-78
2022/07/16 10:31:40;;;;;;;8.63;7.40;;;;;;;28.43;56.20;101015.84;5092533;28;20059;-79
2022/07/16 10:34:13;;;;;;;9.10;6.22;;;;;;;28.44;55.63;101022.16;5093867;28;20052;-78
2022/07/16 10:36:55;;;;;;;9.85;7.15;;;;;;;28.45;55.70;101015.69;5084188;28;20115;-79
2022/07/16 10:39:25;;;;;;;8.40;7.03;;;;;;;28.46;55.34;101017.38;5073015;28;20059;-79
2022/07/16 10:41:59;;;;;;;11.85;7.10;;;;;;;28.46;55.11;101014.66;5073196;28;20789;-79
2022/07/16 10:44:49;;;;;;;7.70;7.00;;;;;;;28.46;55.45;101018.22;5071784;28;20051;-79
2022/07/16 10:47:17;;;;;;;7.38;6.68;;;;;;;28.46;55.00;101011.91;5071665;28;20056;-79
2022/07/16 10:49:46;;;;;;;11.23;7.07;;;;;;;28.46;55.27;101006.47;5073256;28;20055;-81
2022/07/16 10:52:18;;;;;;;10.95;7.15;;;;;;;28.47;55.41;101000.81;5073174;28;20059;-80
2022/07/16 10:54:49;;;;;;;9.25;7.40;;;;;;;28.46;55.18;100996.41;5073176;28;20365;-81
2022/07/16 10:57:31;;;;;;;9.82;7.43;;;;;;;28.47;55.24;101005.44;5073725;28;20052;-80
2022/07/16 10:59:59;;;;;;;11.40;7.47;;;;;;;28.47;55.37;101002.72;5071914;28;20055;-80
2022/07/16 11:02:27;;;;;;;7.53;6.82;;;;;;;28.48;55.02;101009.84;5073546;28;20290;-81
2022/07/16 11:04:54;;;;;;;8.40;7.57;;;;;;;28.47;55.06;100992.66;5072827;28;20071;-80
2022/07/16 11:07:22;;;;;;;9.05;8.05;;;;;;;28.47;55.09;100997.25;5074083;28;20388;-80
2022/07/16 11:09:52;;;;;;;8.60;7.70;;;;;;;28.47;55.33;100992.66;5073912;28;20048;-82
2022/07/16 11:12:22;;;;;;;7.78;7.07;;;;;;;28.47;54.96;100989.94;5070939;28;20048;-83
2022/07/16 11:14:55;;;;;;;8.40;7.60;;;;;;;28.48;54.82;100986.19;5074190;28;20407;-83
2022/07/16 11:17:25;;;;;;;7.53;6.45;;;;;;;28.49;54.55;100987.03;5074549;28;20100;-80
2022/07/16 11:19:56;;;;;;;7.13;6.43;;;;;;;28.50;54.89;100986.00;5072685;28;20049;-80
2022/07/16 11:22:29;;;;;;;10.32;7.45;;;;;;;28.51;54.78;100990.41;5071446;28;20057;-80
2022/07/16 11:25:09;;;;;;;7.47;6.72;;;;;;;28.52;54.93;100989.38;5074487;28;20051;-80
2022/07/16 11:27:41;;;;;;;7.65;6.88;;;;;;;28.52;54.26;100983.91;5072747;28;20044;-80
2022/07/16 11:30:11;;;;;;;7.95;7.20;;;;;;;28.51;54.62;100977.63;5071955;28;20045;-82
2022/07/16 11:32:46;;;;;;;7.28;6.57;;;;;;;28.52;54.67;100976.63;5072903;28;20052;-81
2022/07/16 11:35:14;;;;;;;12.90;7.90;;;;;;;28.53;54.77;100972.84;5074395;28;20048;-82
2022/07/16 11:37:57;;;;;;;7.07;6.38;;;;;;;28.54;54.92;100966.38;5081670;28;20047;-82
2022/07/16 11:40:39;;;;;;;8.43;7.22;;;;;;;28.54;54.72;100970.97;5093584;28;20052;-83
2022/07/16 11:43:09;;;;;;;10.35;7.22;;;;;;;28.55;54.92;100972.66;5094618;28;20081;-81
2022/07/16 11:45:48;;;;;;;8.77;7.13;;;;;;;28.53;55.06;100966.56;5097328;28;20040;-82